sensor_id;sensor_type;location;lat;lon;timestamp;P1;durP1;ratioP1;P2;durP2;ratioP2
19867;SDS011;10096;51.112;6.776;2023-05-10T00:01:44;15.57;;;12.70;;
19867;SDS011;10096;51.112;6.776;2023-05-10T00:04:13;15.02;;;12.07;;
19867;SDS011;10096;51.112;6.776;2023-05-10T00:06:42;13.98;;;12.18;;
19867;SDS011;10096;51.112;6.776;2023-05-10T00:09:12;15.02;;;12.60;;
19867;SDS011;10096;51.112;6.776;2023-05-10T00:11:40;13.40;;;11.80;;
19867;SDS011;10096;51.112;6.776;2023-05-10T00:14:12;14.45;;;12.93;;
19867;SDS011;10096;51.112;6.776;2023-05-10T00:16:44;15.38;;;12.90;;
19867;SDS011;10096;51.112;6.776;2023-05-10T00:19:12;17.98;;;13.18;;
19867;SDS011;10096;51.112;6.776;2023-05-10T00:21:42;15.13;;;13.48;;
19867;SDS011;10096;51.112;6.776;2023-05-10T00:24:13;14.55;;;12.32;;
19867;SDS011;10096;51.112;6.776;2023-05-10T00:26:43;15.82;;;12.15;;
19867;SDS011;10096;51.112;6.776;2023-05-10T00:29:11;15.15;;;12.50;;
19867;SDS011;10096;51.112;6.776;2023-05-10T00:31:47;15.65;;;12.80;;
19867;SDS011;10096;51.112;6.776;2023-05-10T00:34:14;15.02;;;13.38;;
19867;SDS011;10096;51.112;6.776;2023-05-10T00:36:42;15.70;;;13.23;;
19867;SDS011;10096;51.112;6.776;2023-05-10T00:39:12;16.00;;;13.02;;
19867;SDS011;10096;51.112;6.776;2023-05-10T00:41:43;15.38;;;13.00;;
19867;SDS011;10096;51.112;6.776;2023-05-10T00:44:15;17.90;;;14.20;;
19867;SDS011;10096;51.112;6.776;2023-05-10T00:46:45;14.75;;;12.57;;
19867;SDS011;10096;51.112;6.776;2023-05-10T00:49:17;15.35;;;12.90;;
19867;SDS011;10096;51.112;6.776;2023-05-10T00:51:46;17.38;;;13.25;;
19867;SDS011;10096;51.112;6.776;2023-05-10T00:54:24;13.93;;;11.70;;
19867;SDS011;10096;51.112;6.776;2023-05-10T00:56:57;14.68;;;12.23;;
19867;SDS011;10096;51.112;6.776;2023-05-10T00:59:27;12.43;;;11.07;;
19867;SDS011;10096;51.112;6.776;2023-05-10T01:01:56;12.20;;;10.18;;
19867;SDS011;10096;51.112;6.776;2023-05-10T01:04:25;11.73;;;9.23;;
19867;SDS011;10096;51.112;6.776;2023-05-10T01:06:54;12.15;;;10.02;;
19867;SDS011;10096;51.112;6.776;2023-05-10T01:09:22;10.88;;;9.15;;
19867;SDS011;10096;51.112;6.776;2023-05-10T01:11:52;10.05;;;8.68;;
19867;SDS011;10096;51.112;6.776;2023-05-10T01:14:23;10.05;;;9.02;;
19867;SDS011;10096;51.112;6.776;2023-05-10T01:17:04;9.55;;;8.48;;
19867;SDS011;10096;51.112;6.776;2023-05-10T01:19:34;9.90;;;8.52;;
19867;SDS011;10096;51.112;6.776;2023-05-10T01:22:04;11.88;;;9.15;;
19867;SDS011;10096;51.112;6.776;2023-05-10T01:24:42;9.52;;;7.80;;
19867;SDS011;10096;51.112;6.776;2023-05-10T01:33:26;9.77;;;7.53;;
19867;SDS011;10096;51.112;6.776;2023-05-10T01:36:01;8.30;;;6.65;;
19867;SDS011;10096;51.112;6.776;2023-05-10T01:38:35;8.18;;;6.63;;
19867;SDS011;10096;51.112;6.776;2023-05-10T01:41:13;8.50;;;7.05;;
19867;SDS011;10096;51.112;6.776;2023-05-10T01:43:47;7.97;;;7.18;;
19867;SDS011;10096;51.112;6.776;2023-05-10T01:46:23;8.10;;;6.20;;
19867;SDS011;10096;51.112;6.776;2023-05-10T01:49:07;6.72;;;5.95;;
19867;SDS011;10096;51.112;6.776;2023-05-10T01:51:37;8.23;;;6.15;;
19867;SDS011;10096;51.112;6.776;2023-05-10T01:54:12;7.25;;;5.68;;
19867;SDS011;10096;51.112;6.776;2023-05-10T01:56:44;6.78;;;5.60;;
19867;SDS011;10096;51.112;6.776;2023-05-10T01:59:21;6.53;;;4.90;;
19867;SDS011;10096;51.112;6.776;2023-05-10T02:01:51;7.03;;;5.15;;
19867;SDS011;10096;51.112;6.776;2023-05-10T02:04:28;5.95;;;5.30;;
19867;SDS011;10096;51.112;6.776;2023-05-10T02:06:57;6.13;;;5.53;;
19867;SDS011;10096;51.112;6.776;2023-05-10T02:09:29;7.50;;;5.53;;
19867;SDS011;10096;51.112;6.776;2023-05-10T02:11:59;6.68;;;5.72;;
19867;SDS011;10096;51.112;6.776;2023-05-10T02:14:32;5.95;;;5.10;;
19867;SDS011;10096;51.112;6.776;2023-05-10T02:17:09;5.75;;;5.18;;
19867;SDS011;10096;51.112;6.776;2023-05-10T02:19:40;8.05;;;7.22;;
19867;SDS011;10096;51.112;6.776;2023-05-10T02:22:13;6.70;;;6.00;;
19867;SDS011;10096;51.112;6.776;2023-05-10T02:24:43;6.30;;;5.38;;
19867;SDS011;10096;51.112;6.776;2023-05-10T02:27:13;7.00;;;6.13;;
19867;SDS011;10096;51.112;6.776;2023-05-10T02:29:42;6.38;;;5.63;;
19867;SDS011;10096;51.112;6.776;2023-05-10T02:32:11;7.53;;;5.50;;
19867;SDS011;10096;51.112;6.776;2023-05-10T02:34:42;7.40;;;6.25;;
19867;SDS011;10096;51.112;6.776;2023-05-10T02:37:12;6.68;;;5.82;;
19867;SDS011;10096;51.112;6.776;2023-05-10T02:39:41;9.75;;;6.65;;
19867;SDS011;10096;51.112;6.776;2023-05-10T02:42:11;7.32;;;5.95;;
19867;SDS011;10096;51.112;6.776;2023-05-10T02:44:47;7.45;;;5.85;;
19867;SDS011;10096;51.112;6.776;2023-05-10T02:47:20;7.53;;;6.22;;
19867;SDS011;10096;51.112;6.776;2023-05-10T02:49:50;9.05;;;6.72;;
19867;SDS011;10096;51.112;6.776;2023-05-10T02:52:19;9.10;;;6.55;;
19867;SDS011;10096;51.112;6.776;2023-05-10T02:54:52;8.98;;;7.35;;
19867;SDS011;10096;51.112;6.776;2023-05-10T02:57:27;8.63;;;7.13;;
19867;SDS011;10096;51.112;6.776;2023-05-10T03:00:06;8.07;;;6.88;;
19867;SDS011;10096;51.112;6.776;2023-05-10T03:02:37;10.48;;;7.20;;
19867;SDS011;10096;51.112;6.776;2023-05-10T03:05:09;9.85;;;7.05;;
19867;SDS011;10096;51.112;6.776;2023-05-10T03:07:38;10.63;;;7.30;;
19867;SDS011;10096;51.112;6.776;2023-05-10T03:10:06;9.52;;;7.45;;
19867;SDS011;10096;51.112;6.776;2023-05-10T03:12:47;8.75;;;7.85;;
19867;SDS011;10096;51.112;6.776;2023-05-10T03:15:28;10.40;;;8.45;;
19867;SDS011;10096;51.112;6.776;2023-05-10T03:18:04;10.57;;;8.20;;
19867;SDS011;10096;51.112;6.776;2023-05-10T03:20:39;8.35;;;7.53;;
19867;SDS011;10096;51.112;6.776;2023-05-10T03:23:21;10.15;;;8.25;;
19867;SDS011;10096;51.112;6.776;2023-05-10T03:25:50;9.45;;;7.78;;
19867;SDS011;10096;51.112;6.776;2023-05-10T03:28:20;10.38;;;8.65;;
19867;SDS011;10096;51.112;6.776;2023-05-10T03:30:50;10.63;;;8.57;;
19867;SDS011;10096;51.112;6.776;2023-05-10T03:33:20;11.18;;;8.95;;
19867;SDS011;10096;51.112;6.776;2023-05-10T03:35:49;10.48;;;8.23;;
19867;SDS011;10096;51.112;6.776;2023-05-10T03:38:16;9.95;;;8.82;;
19867;SDS011;10096;51.112;6.776;2023-05-10T03:40:46;12.57;;;9.07;;
19867;SDS011;10096;51.112;6.776;2023-05-10T03:43:14;11.25;;;9.48;;
19867;SDS011;10096;51.112;6.776;2023-05-10T03:45:47;11.30;;;9.15;;
19867;SDS011;10096;51.112;6.776;2023-05-10T03:48:19;13.43;;;10.38;;
19867;SDS011;10096;51.112;6.776;2023-05-10T03:50:52;12.73;;;9.85;;
19867;SDS011;10096;51.112;6.776;2023-05-10T03:53:20;13.65;;;10.13;;
19867;SDS011;10096;51.112;6.776;2023-05-10T03:55:48;13.25;;;10.38;;
19867;SDS011;10096;51.112;6.776;2023-05-10T03:58:21;13.45;;;10.52;;
19867;SDS011;10096;51.112;6.776;2023-05-10T04:00:50;15.98;;;11.13;;
19867;SDS011;10096;51.112;6.776;2023-05-10T04:03:18;15.60;;;11.73;;
19867;SDS011;10096;51.112;6.776;2023-05-10T04:05:51;17.27;;;13.60;;
19867;SDS011;10096;51.112;6.776;2023-05-10T04:08:26;18.85;;;12.88;;
19867;SDS011;10096;51.112;6.776;2023-05-10T04:11:04;18.10;;;14.18;;
19867;SDS011;10096;51.112;6.776;2023-05-10T04:13:32;21.88;;;16.80;;
19867;SDS011;10096;51.112;6.776;2023-05-10T04:16:00;22.05;;;16.40;;
19867;SDS011;10096;51.112;6.776;2023-05-10T04:18:29;24.10;;;17.67;;
19867;SDS011;10096;51.112;6.776;2023-05-10T04:21:01;25.05;;;17.30;;
19867;SDS011;10096;51.112;6.776;2023-05-10T04:23:30;24.00;;;17.98;;
19867;SDS011;10096;51.112;6.776;2023-05-10T04:26:01;26.52;;;18.60;;
19867;SDS011;10096;51.112;6.776;2023-05-10T04:28:32;28.20;;;19.40;;
19867;SDS011;10096;51.112;6.776;2023-05-10T04:31:01;24.73;;;18.63;;
19867;SDS011;10096;51.112;6.776;2023-05-10T04:33:29;24.13;;;18.38;;
19867;SDS011;10096;51.112;6.776;2023-05-10T04:36:02;28.17;;;21.38;;
19867;SDS011;10096;51.112;6.776;2023-05-10T04:38:30;24.25;;;18.67;;
19867;SDS011;10096;51.112;6.776;2023-05-10T04:41:05;24.23;;;19.00;;
19867;SDS011;10096;51.112;6.776;2023-05-10T04:43:35;23.23;;;18.85;;
19867;SDS011;10096;51.112;6.776;2023-05-10T04:46:06;23.35;;;18.20;;
19867;SDS011;10096;51.112;6.776;2023-05-10T04:48:40;22.02;;;18.00;;
19867;SDS011;10096;51.112;6.776;2023-05-10T04:51:09;21.60;;;15.27;;
19867;SDS011;10096;51.112;6.776;2023-05-10T04:53:37;19.02;;;15.40;;
19867;SDS011;10096;51.112;6.776;2023-05-10T04:56:07;16.77;;;14.40;;
19867;SDS011;10096;51.112;6.776;2023-05-10T04:58:37;17.25;;;14.35;;
19867;SDS011;10096;51.112;6.776;2023-05-10T05:01:05;16.27;;;13.68;;
19867;SDS011;10096;51.112;6.776;2023-05-10T05:03:39;16.50;;;13.05;;
19867;SDS011;10096;51.112;6.776;2023-05-10T05:06:13;13.95;;;12.20;;
19867;SDS011;10096;51.112;6.776;2023-05-10T05:08:44;15.73;;;12.80;;
19867;SDS011;10096;51.112;6.776;2023-05-10T05:11:11;15.13;;;12.27;;
19867;SDS011;10096;51.112;6.776;2023-05-10T05:13:41;16.25;;;13.38;;
19867;SDS011;10096;51.112;6.776;2023-05-10T05:16:12;13.07;;;11.68;;
19867;SDS011;10096;51.112;6.776;2023-05-10T05:18:39;15.90;;;12.23;;
19867;SDS011;10096;51.112;6.776;2023-05-10T05:21:15;13.57;;;12.15;;
19867;SDS011;10096;51.112;6.776;2023-05-10T05:23:46;18.83;;;12.50;;
19867;SDS011;10096;51.112;6.776;2023-05-10T05:26:14;17.05;;;12.07;;
19867;SDS011;10096;51.112;6.776;2023-05-10T05:28:44;15.15;;;12.75;;
19867;SDS011;10096;51.112;6.776;2023-05-10T05:31:18;16.08;;;12.43;;
19867;SDS011;10096;51.112;6.776;2023-05-10T05:33:47;13.30;;;11.90;;
19867;SDS011;10096;51.112;6.776;2023-05-10T05:36:17;15.27;;;12.98;;
19867;SDS011;10096;51.112;6.776;2023-05-10T05:38:45;18.75;;;12.85;;
19867;SDS011;10096;51.112;6.776;2023-05-10T05:41:19;16.65;;;12.57;;
19867;SDS011;10096;51.112;6.776;2023-05-10T05:43:56;16.10;;;12.52;;
19867;SDS011;10096;51.112;6.776;2023-05-10T05:46:23;16.02;;;12.40;;
19867;SDS011;10096;51.112;6.776;2023-05-10T05:48:51;13.95;;;11.70;;
19867;SDS011;10096;51.112;6.776;2023-05-10T05:51:34;16.08;;;12.35;;
19867;SDS011;10096;51.112;6.776;2023-05-10T05:54:04;16.52;;;12.90;;
19867;SDS011;10096;51.112;6.776;2023-05-10T05:56:36;17.55;;;12.88;;
19867;SDS011;10096;51.112;6.776;2023-05-10T05:59:08;15.27;;;11.95;;
19867;SDS011;10096;51.112;6.776;2023-05-10T06:01:38;15.43;;;13.63;;
19867;SDS011;10096;51.112;6.776;2023-05-10T06:04:07;15.52;;;13.10;;
19867;SDS011;10096;51.112;6.776;2023-05-10T06:06:37;18.90;;;13.85;;
19867;SDS011;10096;51.112;6.776;2023-05-10T06:09:05;17.15;;;14.00;;
19867;SDS011;10096;51.112;6.776;2023-05-10T06:11:35;21.88;;;15.40;;
19867;SDS011;10096;51.112;6.776;2023-05-10T06:14:10;16.80;;;13.07;;
19867;SDS011;10096;51.112;6.776;2023-05-10T06:16:45;17.83;;;14.30;;
19867;SDS011;10096;51.112;6.776;2023-05-10T06:19:20;16.02;;;13.18;;
19867;SDS011;10096;51.112;6.776;2023-05-10T06:21:51;17.73;;;13.80;;
19867;SDS011;10096;51.112;6.776;2023-05-10T06:24:19;21.15;;;15.70;;
19867;SDS011;10096;51.112;6.776;2023-05-10T06:26:47;19.45;;;15.88;;
19867;SDS011;10096;51.112;6.776;2023-05-10T06:29:19;21.42;;;16.17;;
19867;SDS011;10096;51.112;6.776;2023-05-10T06:31:48;25.65;;;16.77;;
19867;SDS011;10096;51.112;6.776;2023-05-10T06:34:18;21.08;;;15.50;;
19867;SDS011;10096;51.112;6.776;2023-05-10T06:36:46;22.08;;;15.32;;
19867;SDS011;10096;51.112;6.776;2023-05-10T06:39:15;22.65;;;15.60;;
19867;SDS011;10096;51.112;6.776;2023-05-10T06:41:45;19.27;;;15.02;;
19867;SDS011;10096;51.112;6.776;2023-05-10T06:44:13;17.63;;;15.32;;
19867;SDS011;10096;51.112;6.776;2023-05-10T06:46:43;17.58;;;14.27;;
19867;SDS011;10096;51.112;6.776;2023-05-10T06:49:11;17.17;;;13.27;;
19867;SDS011;10096;51.112;6.776;2023-05-10T06:51:40;14.82;;;13.05;;
19867;SDS011;10096;51.112;6.776;2023-05-10T06:54:10;16.95;;;14.32;;
19867;SDS011;10096;51.112;6.776;2023-05-10T06:56:40;19.83;;;13.75;;
19867;SDS011;10096;51.112;6.776;2023-05-10T06:59:07;15.50;;;12.20;;
19867;SDS011;10096;51.112;6.776;2023-05-10T07:01:35;16.40;;;12.73;;
19867;SDS011;10096;51.112;6.776;2023-05-10T07:04:06;17.10;;;12.90;;
19867;SDS011;10096;51.112;6.776;2023-05-10T07:06:34;16.42;;;13.48;;
19867;SDS011;10096;51.112;6.776;2023-05-10T07:09:02;17.13;;;13.50;;
19867;SDS011;10096;51.112;6.776;2023-05-10T07:11:32;17.85;;;13.60;;
19867;SDS011;10096;51.112;6.776;2023-05-10T07:14:01;14.35;;;12.27;;
19867;SDS011;10096;51.112;6.776;2023-05-10T07:16:32;15.20;;;13.10;;
19867;SDS011;10096;51.112;6.776;2023-05-10T07:19:00;19.92;;;14.18;;
19867;SDS011;10096;51.112;6.776;2023-05-10T07:21:28;19.52;;;13.20;;
19867;SDS011;10096;51.112;6.776;2023-05-10T07:23:59;19.60;;;15.07;;
19867;SDS011;10096;51.112;6.776;2023-05-10T07:26:27;20.38;;;15.00;;
19867;SDS011;10096;51.112;6.776;2023-05-10T07:28:54;17.50;;;14.20;;
19867;SDS011;10096;51.112;6.776;2023-05-10T07:31:25;19.70;;;14.27;;
19867;SDS011;10096;51.112;6.776;2023-05-10T07:33:53;16.73;;;13.70;;
19867;SDS011;10096;51.112;6.776;2023-05-10T07:36:20;17.80;;;13.98;;
19867;SDS011;10096;51.112;6.776;2023-05-10T07:38:50;17.52;;;13.88;;
19867;SDS011;10096;51.112;6.776;2023-05-10T07:41:18;16.85;;;13.43;;
19867;SDS011;10096;51.112;6.776;2023-05-10T07:43:49;22.45;;;15.77;;
19867;SDS011;10096;51.112;6.776;2023-05-10T07:46:20;16.70;;;13.52;;
19867;SDS011;10096;51.112;6.776;2023-05-10T07:48:51;14.43;;;12.40;;
19867;SDS011;10096;51.112;6.776;2023-05-10T07:51:19;14.70;;;12.15;;
19867;SDS011;10096;51.112;6.776;2023-05-10T07:53:49;14.75;;;13.07;;
19867;SDS011;10096;51.112;6.776;2023-05-10T07:56:20;20.05;;;14.45;;
19867;SDS011;10096;51.112;6.776;2023-05-10T07:58:50;17.95;;;14.70;;
19867;SDS011;10096;51.112;6.776;2023-05-10T08:01:18;17.40;;;13.82;;
19867;SDS011;10096;51.112;6.776;2023-05-10T08:03:47;19.92;;;16.23;;
19867;SDS011;10096;51.112;6.776;2023-05-10T08:06:22;18.02;;;14.82;;
19867;SDS011;10096;51.112;6.776;2023-05-10T08:08:51;20.05;;;15.57;;
19867;SDS011;10096;51.112;6.776;2023-05-10T08:11:20;24.80;;;18.23;;
19867;SDS011;10096;51.112;6.776;2023-05-10T08:13:57;25.67;;;19.20;;
19867;SDS011;10096;51.112;6.776;2023-05-10T08:16:30;29.77;;;23.88;;
19867;SDS011;10096;51.112;6.776;2023-05-10T08:21:36;33.33;;;22.30;;
19867;SDS011;10096;51.112;6.776;2023-05-10T08:24:10;34.95;;;24.73;;
19867;SDS011;10096;51.112;6.776;2023-05-10T08:26:48;32.40;;;23.25;;
19867;SDS011;10096;51.112;6.776;2023-05-10T08:29:16;32.88;;;23.17;;
19867;SDS011;10096;51.112;6.776;2023-05-10T08:31:45;31.48;;;23.65;;
19867;SDS011;10096;51.112;6.776;2023-05-10T08:34:13;33.22;;;23.50;;
19867;SDS011;10096;51.112;6.776;2023-05-10T08:36:46;29.88;;;22.00;;
19867;SDS011;10096;51.112;6.776;2023-05-10T08:39:18;33.58;;;24.02;;
19867;SDS011;10096;51.112;6.776;2023-05-10T08:41:46;37.25;;;25.27;;
19867;SDS011;10096;51.112;6.776;2023-05-10T08:44:23;31.85;;;24.98;;
19867;SDS011;10096;51.112;6.776;2023-05-10T08:46:53;32.58;;;25.42;;
19867;SDS011;10096;51.112;6.776;2023-05-10T08:49:26;28.05;;;21.15;;
19867;SDS011;10096;51.112;6.776;2023-05-10T08:51:59;29.70;;;22.15;;
19867;SDS011;10096;51.112;6.776;2023-05-10T08:54:32;30.23;;;21.02;;
19867;SDS011;10096;51.112;6.776;2023-05-10T08:57:01;28.83;;;21.48;;
19867;SDS011;10096;51.112;6.776;2023-05-10T08:59:35;27.17;;;19.58;;
19867;SDS011;10096;51.112;6.776;2023-05-10T09:02:05;28.15;;;19.55;;
19867;SDS011;10096;51.112;6.776;2023-05-10T09:04:35;25.98;;;19.13;;
19867;SDS011;10096;51.112;6.776;2023-05-10T09:07:08;26.83;;;19.30;;
19867;SDS011;10096;51.112;6.776;2023-05-10T09:09:39;24.77;;;18.13;;
19867;SDS011;10096;51.112;6.776;2023-05-10T09:12:07;24.13;;;19.23;;
19867;SDS011;10096;51.112;6.776;2023-05-10T09:14:39;24.77;;;18.73;;
19867;SDS011;10096;51.112;6.776;2023-05-10T09:17:11;25.15;;;17.95;;
19867;SDS011;10096;51.112;6.776;2023-05-10T09:19:39;24.20;;;18.08;;
19867;SDS011;10096;51.112;6.776;2023-05-10T09:22:11;23.23;;;17.48;;
19867;SDS011;10096;51.112;6.776;2023-05-10T09:24:44;27.80;;;20.17;;
19867;SDS011;10096;51.112;6.776;2023-05-10T09:27:13;30.40;;;20.17;;
19867;SDS011;10096;51.112;6.776;2023-05-10T09:29:43;24.38;;;18.98;;
19867;SDS011;10096;51.112;6.776;2023-05-10T09:32:11;21.80;;;17.95;;
19867;SDS011;10096;51.112;6.776;2023-05-10T09:34:39;24.08;;;18.70;;
19867;SDS011;10096;51.112;6.776;2023-05-10T09:37:08;22.10;;;17.67;;
19867;SDS011;10096;51.112;6.776;2023-05-10T09:39:39;23.35;;;17.42;;
19867;SDS011;10096;51.112;6.776;2023-05-10T09:42:08;20.92;;;17.60;;
19867;SDS011;10096;51.112;6.776;2023-05-10T09:44:41;20.92;;;18.13;;
19867;SDS011;10096;51.112;6.776;2023-05-10T09:47:11;20.40;;;17.63;;
19867;SDS011;10096;51.112;6.776;2023-05-10T09:49:44;23.35;;;17.65;;
19867;SDS011;10096;51.112;6.776;2023-05-10T09:52:18;18.33;;;15.77;;
19867;SDS011;10096;51.112;6.776;2023-05-10T09:54:51;19.25;;;17.00;;
19867;SDS011;10096;51.112;6.776;2023-05-10T09:57:24;19.55;;;15.98;;
19867;SDS011;10096;51.112;6.776;2023-05-10T09:59:52;20.17;;;16.23;;
19867;SDS011;10096;51.112;6.776;2023-05-10T10:02:27;18.80;;;15.95;;
19867;SDS011;10096;51.112;6.776;2023-05-10T10:04:55;17.42;;;15.57;;
19867;SDS011;10096;51.112;6.776;2023-05-10T10:07:28;17.00;;;15.02;;
19867;SDS011;10096;51.112;6.776;2023-05-10T10:09:57;16.92;;;14.65;;
19867;SDS011;10096;51.112;6.776;2023-05-10T10:12:27;17.52;;;15.38;;
19867;SDS011;10096;51.112;6.776;2023-05-10T10:14:58;21.58;;;16.25;;
19867;SDS011;10096;51.112;6.776;2023-05-10T10:17:27;18.45;;;14.70;;
19867;SDS011;10096;51.112;6.776;2023-05-10T10:19:57;18.10;;;14.88;;
19867;SDS011;10096;51.112;6.776;2023-05-10T10:22:28;18.63;;;15.55;;
19867;SDS011;10096;51.112;6.776;2023-05-10T10:24:56;16.48;;;14.27;;
19867;SDS011;10096;51.112;6.776;2023-05-10T10:27:27;17.02;;;13.43;;
19867;SDS011;10096;51.112;6.776;2023-05-10T10:30:25;16.30;;;13.70;;
19867;SDS011;10096;51.112;6.776;2023-05-10T10:33:10;17.85;;;13.48;;
19867;SDS011;10096;51.112;6.776;2023-05-10T10:35:55;17.77;;;14.65;;
19867;SDS011;10096;51.112;6.776;2023-05-10T10:38:37;17.08;;;13.85;;
19867;SDS011;10096;51.112;6.776;2023-05-10T10:41:29;17.48;;;14.18;;
19867;SDS011;10096;51.112;6.776;2023-05-10T10:47:06;16.83;;;12.95;;
19867;SDS011;10096;51.112;6.776;2023-05-10T10:49:43;15.40;;;13.38;;
19867;SDS011;10096;51.112;6.776;2023-05-10T10:52:23;15.60;;;13.00;;
19867;SDS011;10096;51.112;6.776;2023-05-10T10:55:01;15.25;;;11.98;;
19867;SDS011;10096;51.112;6.776;2023-05-10T10:57:35;13.15;;;11.75;;
19867;SDS011;10096;51.112;6.776;2023-05-10T11:00:21;15.50;;;13.00;;
19867;SDS011;10096;51.112;6.776;2023-05-10T11:02:51;15.75;;;11.75;;
19867;SDS011;10096;51.112;6.776;2023-05-10T11:05:34;14.02;;;11.50;;
19867;SDS011;10096;51.112;6.776;2023-05-10T11:08:07;14.10;;;11.38;;
19867;SDS011;10096;51.112;6.776;2023-05-10T11:10:52;14.05;;;11.43;;
19867;SDS011;10096;51.112;6.776;2023-05-10T11:13:32;13.25;;;11.27;;
19867;SDS011;10096;51.112;6.776;2023-05-10T11:16:12;13.75;;;12.25;;
19867;SDS011;10096;51.112;6.776;2023-05-10T11:18:59;13.40;;;11.10;;
19867;SDS011;10096;51.112;6.776;2023-05-10T11:21:30;12.68;;;10.50;;
19867;SDS011;10096;51.112;6.776;2023-05-10T11:24:01;11.52;;;10.32;;
19867;SDS011;10096;51.112;6.776;2023-05-10T11:26:41;13.45;;;10.95;;
19867;SDS011;10096;51.112;6.776;2023-05-10T11:29:09;13.32;;;11.40;;
19867;SDS011;10096;51.112;6.776;2023-05-10T11:31:44;12.95;;;11.52;;
19867;SDS011;10096;51.112;6.776;2023-05-10T11:36:59;14.27;;;11.60;;
19867;SDS011;10096;51.112;6.776;2023-05-10T11:39:28;16.90;;;13.38;;
19867;SDS011;10096;51.112;6.776;2023-05-10T11:41:59;14.25;;;11.20;;
19867;SDS011;10096;51.112;6.776;2023-05-10T11:44:29;14.68;;;11.10;;
19867;SDS011;10096;51.112;6.776;2023-05-10T11:47:00;11.30;;;10.00;;
19867;SDS011;10096;51.112;6.776;2023-05-10T11:49:27;11.57;;;10.32;;
19867;SDS011;10096;51.112;6.776;2023-05-10T11:52:05;11.85;;;10.43;;
19867;SDS011;10096;51.112;6.776;2023-05-10T11:54:45;12.60;;;10.15;;
19867;SDS011;10096;51.112;6.776;2023-05-10T11:57:20;12.63;;;10.10;;
19867;SDS011;10096;51.112;6.776;2023-05-10T11:59:56;11.30;;;9.52;;
19867;SDS011;10096;51.112;6.776;2023-05-10T12:02:28;10.93;;;9.23;;
19867;SDS011;10096;51.112;6.776;2023-05-10T12:04:57;9.95;;;8.95;;
19867;SDS011;10096;51.112;6.776;2023-05-10T12:07:25;12.18;;;10.88;;
19867;SDS011;10096;51.112;6.776;2023-05-10T12:10:02;10.65;;;9.10;;
19867;SDS011;10096;51.112;6.776;2023-05-10T12:12:42;9.70;;;8.70;;
19867;SDS011;10096;51.112;6.776;2023-05-10T12:15:17;10.43;;;8.85;;
19867;SDS011;10096;51.112;6.776;2023-05-10T12:17:47;9.35;;;8.30;;
19867;SDS011;10096;51.112;6.776;2023-05-10T12:20:16;9.45;;;8.52;;
19867;SDS011;10096;51.112;6.776;2023-05-10T12:22:45;9.93;;;8.85;;
19867;SDS011;10096;51.112;6.776;2023-05-10T12:25:16;10.68;;;9.20;;
19867;SDS011;10096;51.112;6.776;2023-05-10T12:27:54;11.30;;;9.57;;
19867;SDS011;10096;51.112;6.776;2023-05-10T12:30:23;9.85;;;8.95;;
19867;SDS011;10096;51.112;6.776;2023-05-10T12:33:06;9.85;;;8.85;;
19867;SDS011;10096;51.112;6.776;2023-05-10T12:35:43;10.90;;;9.45;;
19867;SDS011;10096;51.112;6.776;2023-05-10T12:38:28;11.38;;;10.27;;
19867;SDS011;10096;51.112;6.776;2023-05-10T12:41:04;10.15;;;9.15;;
19867;SDS011;10096;51.112;6.776;2023-05-10T12:43:36;9.48;;;8.57;;
19867;SDS011;10096;51.112;6.776;2023-05-10T12:46:30;9.80;;;8.88;;
19867;SDS011;10096;51.112;6.776;2023-05-10T12:49:00;12.80;;;9.15;;
19867;SDS011;10096;51.112;6.776;2023-05-10T12:51:34;9.77;;;8.82;;
19867;SDS011;10096;51.112;6.776;2023-05-10T12:54:05;10.32;;;8.90;;
19867;SDS011;10096;51.112;6.776;2023-05-10T12:56:34;16.33;;;12.13;;
19867;SDS011;10096;51.112;6.776;2023-05-10T12:59:03;10.75;;;9.65;;
19867;SDS011;10096;51.112;6.776;2023-05-10T13:01:31;9.30;;;8.40;;
19867;SDS011;10096;51.112;6.776;2023-05-10T13:04:03;7.95;;;7.25;;
19867;SDS011;10096;51.112;6.776;2023-05-10T13:06:31;8.10;;;7.30;;
19867;SDS011;10096;51.112;6.776;2023-05-10T13:09:00;7.55;;;6.75;;
19867;SDS011;10096;51.112;6.776;2023-05-10T13:11:27;8.35;;;7.25;;
19867;SDS011;10096;51.112;6.776;2023-05-10T13:13:55;8.43;;;7.07;;
19867;SDS011;10096;51.112;6.776;2023-05-10T13:16:25;8.20;;;7.28;;
19867;SDS011;10096;51.112;6.776;2023-05-10T13:19:02;10.70;;;9.70;;
19867;SDS011;10096;51.112;6.776;2023-05-10T13:21:34;12.98;;;11.55;;
19867;SDS011;10096;51.112;6.776;2023-05-10T13:24:03;12.27;;;10.98;;
19867;SDS011;10096;51.112;6.776;2023-05-10T13:26:33;15.27;;;13.00;;
19867;SDS011;10096;51.112;6.776;2023-05-10T13:29:03;10.75;;;9.68;;
19867;SDS011;10096;51.112;6.776;2023-05-10T13:31:32;10.98;;;9.70;;
19867;SDS011;10096;51.112;6.776;2023-05-10T13:34:01;9.98;;;8.95;;
19867;SDS011;10096;51.112;6.776;2023-05-10T13:36:32;11.70;;;10.50;;
19867;SDS011;10096;51.112;6.776;2023-05-10T13:39:00;13.00;;;10.25;;
19867;SDS011;10096;51.112;6.776;2023-05-10T13:41:30;12.98;;;11.15;;
19867;SDS011;10096;51.112;6.776;2023-05-10T13:43:59;11.75;;;10.40;;
19867;SDS011;10096;51.112;6.776;2023-05-10T13:46:28;11.32;;;10.13;;
19867;SDS011;10096;51.112;6.776;2023-05-10T13:48:59;23.20;;;15.75;;
19867;SDS011;10096;51.112;6.776;2023-05-10T13:51:28;13.13;;;11.48;;
19867;SDS011;10096;51.112;6.776;2023-05-10T13:54:00;11.27;;;10.18;;
19867;SDS011;10096;51.112;6.776;2023-05-10T13:56:28;11.10;;;10.00;;
19867;SDS011;10096;51.112;6.776;2023-05-10T13:58:56;13.52;;;10.80;;
19867;SDS011;10096;51.112;6.776;2023-05-10T14:01:31;12.25;;;11.05;;
19867;SDS011;10096;51.112;6.776;2023-05-10T14:04:03;11.75;;;10.25;;
19867;SDS011;10096;51.112;6.776;2023-05-10T14:06:30;14.13;;;11.20;;
19867;SDS011;10096;51.112;6.776;2023-05-10T14:09:01;10.57;;;9.48;;
19867;SDS011;10096;51.112;6.776;2023-05-10T14:11:29;12.82;;;10.40;;
19867;SDS011;10096;51.112;6.776;2023-05-10T14:13:58;12.20;;;10.45;;
19867;SDS011;10096;51.112;6.776;2023-05-10T14:16:26;14.07;;;11.27;;
19867;SDS011;10096;51.112;6.776;2023-05-10T14:18:54;12.82;;;11.10;;
19867;SDS011;10096;51.112;6.776;2023-05-10T14:21:24;13.63;;;10.63;;
19867;SDS011;10096;51.112;6.776;2023-05-10T14:23:53;12.75;;;11.45;;
19867;SDS011;10096;51.112;6.776;2023-05-10T14:26:21;12.65;;;11.35;;
19867;SDS011;10096;51.112;6.776;2023-05-10T14:29:01;14.10;;;11.20;;
19867;SDS011;10096;51.112;6.776;2023-05-10T14:31:41;12.07;;;10.65;;
19867;SDS011;10096;51.112;6.776;2023-05-10T14:34:09;14.32;;;10.80;;
19867;SDS011;10096;51.112;6.776;2023-05-10T14:36:43;14.52;;;10.95;;
19867;SDS011;10096;51.112;6.776;2023-05-10T14:39:10;18.40;;;12.45;;
19867;SDS011;10096;51.112;6.776;2023-05-10T14:41:39;14.43;;;10.63;;
19867;SDS011;10096;51.112;6.776;2023-05-10T14:44:10;12.35;;;10.45;;
19867;SDS011;10096;51.112;6.776;2023-05-10T14:46:40;13.32;;;11.05;;
19867;SDS011;10096;51.112;6.776;2023-05-10T14:49:09;11.30;;;9.85;;
19867;SDS011;10096;51.112;6.776;2023-05-10T14:51:37;11.25;;;10.07;;
19867;SDS011;10096;51.112;6.776;2023-05-10T14:54:11;14.43;;;10.70;;
19867;SDS011;10096;51.112;6.776;2023-05-10T14:56:43;11.43;;;10.18;;
19867;SDS011;10096;51.112;6.776;2023-05-10T14:59:20;11.98;;;10.35;;
19867;SDS011;10096;51.112;6.776;2023-05-10T15:01:48;10.73;;;9.57;;
19867;SDS011;10096;51.112;6.776;2023-05-10T15:04:23;11.77;;;9.52;;
19867;SDS011;10096;51.112;6.776;2023-05-10T15:07:01;12.70;;;9.77;;
19867;SDS011;10096;51.112;6.776;2023-05-10T15:09:32;14.10;;;10.05;;